sensor_id;sensor_type;location;lat;lon;timestamp;pressure;altitude;pressure_sealevel;temperature;humidity
75629;BME280;64213;46.452;16.994;2024-03-02T00:01:58;99183.69;;;7.77;100.00
75629;BME280;64213;46.452;16.994;2024-03-02T00:05:01;99179.06;;;7.81;100.00
75629;BME280;64213;46.452;16.994;2024-03-02T00:08:05;99177.37;;;7.80;100.00
75629;BME280;64213;46.452;16.994;2024-03-02T00:11:09;99175.72;;;7.79;100.00
75629;BME280;64213;46.452;16.994;2024-03-02T00:14:13;99166.84;;;7.80;100.00
75629;BME280;64213;46.452;16.994;2024-03-02T00:17:24;99165.38;;;7.76;100.00
75629;BME280;64213;46.452;16.994;2024-03-02T00:20:26;99167.06;;;7.77;100.00
75629;BME280;64213;46.452;16.994;2024-03-02T00:23:30;99159.78;;;7.80;100.00
75629;BME280;64213;46.452;16.994;2024-03-02T00:26:33;99161.59;;;7.80;100.00
75629;BME280;64213;46.452;16.994;2024-03-02T00:29:36;99164.97;;;7.82;100.00
75629;BME280;64213;46.452;16.994;2024-03-02T00:32:39;99163.91;;;7.84;100.00
75629;BME280;64213;46.452;16.994;2024-03-02T00:35:44;99162.84;;;7.87;100.00
75629;BME280;64213;46.452;16.994;2024-03-02T00:38:47;99157.78;;;7.84;100.00
75629;BME280;64213;46.452;16.994;2024-03-02T00:41:51;99155.37;;;7.81;100.00
75629;BME280;64213;46.452;16.994;2024-03-02T00:44:53;99160.13;;;7.76;100.00
75629;BME280;64213;46.452;16.994;2024-03-02T00:47:56;99159.03;;;7.78;100.00
75629;BME280;64213;46.452;16.994;2024-03-02T00:50:58;99152.72;;;7.81;100.00
75629;BME280;64213;46.452;16.994;2024-03-02T00:54:04;99146.09;;;7.75;100.00
75629;BME280;64213;46.452;16.994;2024-03-02T00:57:10;99144.19;;;7.77;100.00
75629;BME280;64213;46.452;16.994;2024-03-02T01:00:15;99146.19;;;7.74;100.00
75629;BME280;64213;46.452;16.994;2024-03-02T01:03:19;99134.84;;;7.73;100.00
75629;BME280;64213;46.452;16.994;2024-03-02T01:06:23;99144.53;;;7.73;100.00
75629;BME280;64213;46.452;16.994;2024-03-02T01:09:27;99136.72;;;7.71;100.00
75629;BME280;64213;46.452;16.994;2024-03-02T01:12:30;99140.09;;;7.73;100.00
75629;BME280;64213;46.452;16.994;2024-03-02T01:15:33;99129.56;;;7.73;100.00
75629;BME280;64213;46.452;16.994;2024-03-02T01:18:36;99120.84;;;7.73;100.00
75629;BME280;64213;46.452;16.994;2024-03-02T01:21:38;99119.13;;;7.72;100.00
75629;BME280;64213;46.452;16.994;2024-03-02T01:24:41;99121.97;;;7.68;100.00
75629;BME280;64213;46.452;16.994;2024-03-02T01:27:43;99122.91;;;7.67;100.00
75629;BME280;64213;46.452;16.994;2024-03-02T01:30:49;99116.59;;;7.57;100.00
75629;BME280;64213;46.452;16.994;2024-03-02T01:33:51;99121.41;;;7.51;100.00
75629;BME280;64213;46.452;16.994;2024-03-02T01:36:56;99120.56;;;7.50;100.00
75629;BME280;64213;46.452;16.994;2024-03-02T01:39:58;99121.69;;;7.46;100.00
75629;BME280;64213;46.452;16.994;2024-03-02T01:43:01;99118.22;;;7.45;100.00
75629;BME280;64213;46.452;16.994;2024-03-02T01:46:04;99105.28;;;7.42;100.00
75629;BME280;64213;46.452;16.994;2024-03-02T01:49:07;99100.84;;;7.43;100.00
75629;BME280;64213;46.452;16.994;2024-03-02T01:52:09;99107.00;;;7.43;100.00
75629;BME280;64213;46.452;16.994;2024-03-02T01:55:13;99106.44;;;7.38;100.00
75629;BME280;64213;46.452;16.994;2024-03-02T01:58:16;99109.47;;;7.32;100.00
75629;BME280;64213;46.452;16.994;2024-03-02T02:01:19;99101.78;;;7.29;100.00
75629;BME280;64213;46.452;16.994;2024-03-02T02:04:21;99108.19;;;7.25;100.00
75629;BME280;64213;46.452;16.994;2024-03-02T02:07:29;99116.56;;;7.17;100.00
75629;BME280;64213;46.452;16.994;2024-03-02T02:10:32;99126.25;;;7.17;100.00
75629;BME280;64213;46.452;16.994;2024-03-02T02:13:34;99123.72;;;7.15;100.00
75629;BME280;64213;46.452;16.994;2024-03-02T02:16:37;99121.81;;;7.17;100.00
75629;BME280;64213;46.452;16.994;2024-03-02T02:19:40;99124.56;;;7.16;100.00
75629;BME280;64213;46.452;16.994;2024-03-02T02:23:02;99120.12;;;7.16;100.00
75629;BME280;64213;46.452;16.994;2024-03-02T02:26:05;99130.34;;;7.21;100.00
75629;BME280;64213;46.452;16.994;2024-03-02T02:29:07;99128.78;;;7.18;100.00
75629;BME280;64213;46.452;16.994;2024-03-02T02:32:10;99133.66;;;7.25;100.00
75629;BME280;64213;46.452;16.994;2024-03-02T02:35:12;99135.13;;;7.29;100.00
75629;BME280;64213;46.452;16.994;2024-03-02T02:38:15;99130.41;;;7.34;100.00
75629;BME280;64213;46.452;16.994;2024-03-02T02:41:17;99131.78;;;7.39;100.00
75629;BME280;64213;46.452;16.994;2024-03-02T02:44:19;99141.91;;;7.45;100.00
75629;BME280;64213;46.452;16.994;2024-03-02T02:47:22;99143.38;;;7.50;100.00
75629;BME280;64213;46.452;16.994;2024-03-02T02:50:24;99141.44;;;7.53;100.00
75629;BME280;64213;46.452;16.994;2024-03-02T02:53:26;99156.25;;;7.54;100.00
75629;BME280;64213;46.452;16.994;2024-03-02T02:56:29;99161.28;;;7.44;100.00
75629;BME280;64213;46.452;16.994;2024-03-02T02:59:31;99173.03;;;7.39;100.00
75629;BME280;64213;46.452;16.994;2024-03-02T03:02:34;99164.06;;;7.29;100.00
75629;BME280;64213;46.452;16.994;2024-03-02T03:05:36;99162.03;;;7.19;100.00
75629;BME280;64213;46.452;16.994;2024-03-02T03:08:38;99161.47;;;7.14;100.00
75629;BME280;64213;46.452;16.994;2024-03-02T03:11:41;99164.09;;;7.14;100.00
75629;BME280;64213;46.452;16.994;2024-03-02T03:14:43;99165.03;;;7.13;100.00
75629;BME280;64213;46.452;16.994;2024-03-02T03:17:46;99171.06;;;7.15;100.00
75629;BME280;64213;46.452;16.994;2024-03-02T03:20:49;99163.06;;;7.17;100.00
75629;BME280;64213;46.452;16.994;2024-03-02T03:23:52;99168.13;;;7.20;100.00
75629;BME280;64213;46.452;16.994;2024-03-02T03:26:54;99173.00;;;7.26;100.00
75629;BME280;64213;46.452;16.994;2024-03-02T03:29:56;99168.38;;;7.30;100.00
75629;BME280;64213;46.452;16.994;2024-03-02T03:32:59;99177.03;;;7.32;100.00
75629;BME280;64213;46.452;16.994;2024-03-02T03:36:02;99177.66;;;7.35;100.00
75629;BME280;64213;46.452;16.994;2024-03-02T03:39:05;99178.50;;;7.36;100.00
75629;BME280;64213;46.452;16.994;2024-03-02T03:42:08;99167.59;;;7.42;100.00
75629;BME280;64213;46.452;16.994;2024-03-02T03:45:11;99166.34;;;7.48;100.00
75629;BME280;64213;46.452;16.994;2024-03-02T03:48:13;99170.56;;;7.50;100.00
75629;BME280;64213;46.452;16.994;2024-03-02T03:51:16;99165.94;;;7.54;100.00
75629;BME280;64213;46.452;16.994;2024-03-02T03:54:18;99164.03;;;7.56;100.00
75629;BME280;64213;46.452;16.994;2024-03-02T03:57:21;99168.06;;;7.61;100.00
75629;BME280;64213;46.452;16.994;2024-03-02T04:00:23;99165.22;;;7.64;100.00
75629;BME280;64213;46.452;16.994;2024-03-02T04:03:26;99155.66;;;7.63;100.00
75629;BME280;64213;46.452;16.994;2024-03-02T04:06:29;99158.94;;;7.67;100.00
75629;BME280;64213;46.452;16.994;2024-03-02T04:09:32;99158.81;;;7.68;100.00
75629;BME280;64213;46.452;16.994;2024-03-02T04:12:38;99152.50;;;7.71;100.00
75629;BME280;64213;46.452;16.994;2024-03-02T04:15:40;99155.87;;;7.73;100.00
75629;BME280;64213;46.452;16.994;2024-03-02T04:18:43;99155.97;;;7.72;100.00
75629;BME280;64213;46.452;16.994;2024-03-02T04:21:45;99165.59;;;7.73;100.00
75629;BME280;64213;46.452;16.994;2024-03-02T04:24:48;99162.31;;;7.69;100.00
75629;BME280;64213;46.452;16.994;2024-03-02T04:27:50;99159.22;;;7.62;100.00
75629;BME280;64213;46.452;16.994;2024-03-02T04:30:53;99160.91;;;7.63;100.00
75629;BME280;64213;46.452;16.994;2024-03-02T04:33:55;99166.59;;;7.57;100.00
75629;BME280;64213;46.452;16.994;2024-03-02T04:36:58;99161.47;;;7.41;100.00
75629;BME280;64213;46.452;16.994;2024-03-02T04:40:01;99157.22;;;7.26;100.00
75629;BME280;64213;46.452;16.994;2024-03-02T04:43:03;99159.56;;;7.31;100.00
75629;BME280;64213;46.452;16.994;2024-03-02T04:46:07;99159.09;;;7.24;100.00
75629;BME280;64213;46.452;16.994;2024-03-02T04:49:09;99159.97;;;7.25;100.00
75629;BME280;64213;46.452;16.994;2024-03-02T04:52:12;99162.59;;;7.25;100.00
75629;BME280;64213;46.452;16.994;2024-03-02T04:55:14;99148.13;;;7.17;100.00
75629;BME280;64213;46.452;16.994;2024-03-02T04:58:30;99150.03;;;7.15;100.00
75629;BME280;64213;46.452;16.994;2024-03-02T05:01:32;99155.28;;;7.15;100.00
75629;BME280;64213;46.452;16.994;2024-03-02T05:04:36;99156.13;;;7.16;100.00
75629;BME280;64213;46.452;16.994;2024-03-02T05:07:38;99156.19;;;7.14;100.00
75629;BME280;64213;46.452;16.994;2024-03-02T05:10:40;99173.88;;;7.12;100.00
75629;BME280;64213;46.452;16.994;2024-03-02T05:13:43;99189.59;;;6.99;100.00
75629;BME280;64213;46.452;16.994;2024-03-02T05:16:45;99202.09;;;6.96;100.00
75629;BME280;64213;46.452;16.994;2024-03-02T05:19:47;99197.69;;;6.96;100.00
75629;BME280;64213;46.452;16.994;2024-03-02T05:22:50;99202.75;;;6.99;100.00
75629;BME280;64213;46.452;16.994;2024-03-02T05:25:53;99200.66;;;7.05;100.00
75629;BME280;64213;46.452;16.994;2024-03-02T05:28:56;99203.94;;;7.08;100.00
75629;BME280;64213;46.452;16.994;2024-03-02T05:31:58;99190.59;;;7.11;100.00
75629;BME280;64213;46.452;16.994;2024-03-02T05:35:01;99190.59;;;7.11;100.00
75629;BME280;64213;46.452;16.994;2024-03-02T05:38:05;99189.66;;;7.12;100.00
75629;BME280;64213;46.452;16.994;2024-03-02T05:41:07;99201.78;;;7.15;100.00
75629;BME280;64213;46.452;16.994;2024-03-02T05:44:09;99194.63;;;7.17;100.00
75629;BME280;64213;46.452;16.994;2024-03-02T05:47:12;99198.84;;;7.19;100.00
75629;BME280;64213;46.452;16.994;2024-03-02T05:50:14;99197.06;;;7.20;100.00
75629;BME280;64213;46.452;16.994;2024-03-02T05:53:16;99199.50;;;7.23;100.00
75629;BME280;64213;46.452;16.994;2024-03-02T05:56:19;99201.94;;;7.26;100.00
75629;BME280;64213;46.452;16.994;2024-03-02T05:59:22;99199.03;;;7.31;100.00
75629;BME280;64213;46.452;16.994;2024-03-02T06:02:24;99205.84;;;7.33;100.00
75629;BME280;64213;46.452;16.994;2024-03-02T06:05:26;99208.41;;;7.35;100.00
75629;BME280;64213;46.452;16.994;2024-03-02T06:08:29;99208.41;;;7.35;100.00
75629;BME280;64213;46.452;16.994;2024-03-02T06:11:31;99208.19;;;7.38;100.00
75629;BME280;64213;46.452;16.994;2024-03-02T06:14:34;99213.28;;;7.41;100.00
75629;BME280;64213;46.452;16.994;2024-03-02T06:17:36;99210.44;;;7.44;100.00
75629;BME280;64213;46.452;16.994;2024-03-02T06:20:39;99220.75;;;7.47;100.00
75629;BME280;64213;46.452;16.994;2024-03-02T06:23:43;99218.13;;;7.47;100.00
75629;BME280;64213;46.452;16.994;2024-03-02T06:26:46;99214.94;;;7.42;100.00
75629;BME280;64213;46.452;16.994;2024-03-02T06:29:49;99222.59;;;7.32;100.00
75629;BME280;64213;46.452;16.994;2024-03-02T06:32:51;99228.69;;;7.33;100.00
75629;BME280;64213;46.452;16.994;2024-03-02T06:35:54;99230.38;;;7.34;100.00
75629;BME280;64213;46.452;16.994;2024-03-02T06:38:56;99240.69;;;7.37;100.00
75629;BME280;64213;46.452;16.994;2024-03-02T06:41:59;99237.66;;;7.43;100.00
75629;BME280;64213;46.452;16.994;2024-03-02T06:45:02;99245.16;;;7.49;100.00
75629;BME280;64213;46.452;16.994;2024-03-02T06:48:05;99244.06;;;7.53;100.00
75629;BME280;64213;46.452;16.994;2024-03-02T06:51:08;99244.50;;;7.60;100.00
75629;BME280;64213;46.452;16.994;2024-03-02T06:54:10;99245.75;;;7.54;100.00
75629;BME280;64213;46.452;16.994;2024-03-02T06:57:12;99250.50;;;7.62;100.00
75629;BME280;64213;46.452;16.994;2024-03-02T07:00:15;99250.66;;;7.73;100.00
75629;BME280;64213;46.452;16.994;2024-03-02T07:03:20;99253.16;;;7.75;100.00
75629;BME280;64213;46.452;16.994;2024-03-02T07:06:22;99245.06;;;7.78;100.00
75629;BME280;64213;46.452;16.994;2024-03-02T07:09:25;99251.84;;;7.82;100.00
75629;BME280;64213;46.452;16.994;2024-03-02T07:12:28;99242.25;;;7.81;100.00
75629;BME280;64213;46.452;16.994;2024-03-02T07:15:30;99251.03;;;7.94;100.00
75629;BME280;64213;46.452;16.994;2024-03-02T07:18:49;99251.56;;;7.99;100.00
75629;BME280;64213;46.452;16.994;2024-03-02T07:21:54;99240.53;;;8.07;100.00
75629;BME280;64213;46.452;16.994;2024-03-02T07:24:57;99255.84;;;8.27;100.00
75629;BME280;64213;46.452;16.994;2024-03-02T07:28:00;99257.13;;;8.34;100.00
75629;BME280;64213;46.452;16.994;2024-03-02T07:31:04;99255.28;;;8.49;100.00
75629;BME280;64213;46.452;16.994;2024-03-02T07:34:07;99262.44;;;8.47;100.00
75629;BME280;64213;46.452;16.994;2024-03-02T07:37:10;99265.19;;;8.46;100.00
75629;BME280;64213;46.452;16.994;2024-03-02T07:40:12;99268.66;;;8.46;100.00
75629;BME280;64213;46.452;16.994;2024-03-02T07:43:15;99275.75;;;8.58;100.00
75629;BME280;64213;46.452;16.994;2024-03-02T07:46:18;99278.06;;;8.63;100.00
75629;BME280;64213;46.452;16.994;2024-03-02T07:49:23;99272.44;;;8.80;100.00
75629;BME280;64213;46.452;16.994;2024-03-02T07:52:26;99281.84;;;8.84;100.00
75629;BME280;64213;46.452;16.994;2024-03-02T07:55:28;99276.78;;;8.94;100.00
75629;BME280;64213;46.452;16.994;2024-03-02T07:58:30;99286.16;;;8.98;100.00
75629;BME280;64213;46.452;16.994;2024-03-02T08:01:33;99286.81;;;8.89;100.00
75629;BME280;64213;46.452;16.994;2024-03-02T08:04:36;99288.41;;;8.79;100.00
75629;BME280;64213;46.452;16.994;2024-03-02T08:07:39;99285.75;;;8.79;100.00
75629;BME280;64213;46.452;16.994;2024-03-02T08:10:42;99296.62;;;8.74;100.00
75629;BME280;64213;46.452;16.994;2024-03-02T08:13:46;99298.41;;;8.74;100.00
75629;BME280;64213;46.452;16.994;2024-03-02T08:16:48;99294.09;;;8.73;100.00
75629;BME280;64213;46.452;16.994;2024-03-02T08:19:52;99300.13;;;8.75;100.00
75629;BME280;64213;46.452;16.994;2024-03-02T08:22:54;99301.25;;;8.71;100.00
75629;BME280;64213;46.452;16.994;2024-03-02T08:25:57;99299.47;;;8.58;100.00
75629;BME280;64213;46.452;16.994;2024-03-02T08:28:59;99302.09;;;8.58;100.00
75629;BME280;64213;46.452;16.994;2024-03-02T08:32:04;99297.13;;;8.67;100.00
75629;BME280;64213;46.452;16.994;2024-03-02T08:35:07;99297.47;;;8.75;100.00
75629;BME280;64213;46.452;16.994;2024-03-02T08:38:09;99293.66;;;8.92;100.00
75629;BME280;64213;46.452;16.994;2024-03-02T08:41:12;99290.25;;;9.15;100.00
75629;BME280;64213;46.452;16.994;2024-03-02T08:44:17;99285.34;;;9.47;100.00
75629;BME280;64213;46.452;16.994;2024-03-02T08:47:19;99291.94;;;9.66;100.00
75629;BME280;64213;46.452;16.994;2024-03-02T08:50:22;99288.31;;;9.80;100.00
75629;BME280;64213;46.452;16.994;2024-03-02T08:53:24;99280.94;;;9.96;100.00
75629;BME280;64213;46.452;16.994;2024-03-02T08:56:27;99284.37;;;10.09;100.00
75629;BME280;64213;46.452;16.994;2024-03-02T08:59:29;99292.16;;;10.11;100.00
75629;BME280;64213;46.452;16.994;2024-03-02T09:02:31;99304.47;;;9.75;100.00
75629;BME280;64213;46.452;16.994;2024-03-02T09:05:34;99300.87;;;9.76;100.00
75629;BME280;64213;46.452;16.994;2024-03-02T09:08:36;99302.22;;;9.58;100.00
75629;BME280;64213;46.452;16.994;2024-03-02T09:11:40;99310.84;;;9.60;100.00
75629;BME280;64213;46.452;16.994;2024-03-02T09:14:43;99298.94;;;9.67;100.00
75629;BME280;64213;46.452;16.994;2024-03-02T09:17:45;99301.97;;;9.73;100.00
75629;BME280;64213;46.452;16.994;2024-03-02T09:20:47;99296.50;;;9.64;100.00
75629;BME280;64213;46.452;16.994;2024-03-02T09:23:50;99303.12;;;9.69;100.00
75629;BME280;64213;46.452;16.994;2024-03-02T09:26:52;99318.28;;;9.54;100.00
75629;BME280;64213;46.452;16.994;2024-03-02T09:29:56;99314.41;;;9.35;100.00
75629;BME280;64213;46.452;16.994;2024-03-02T09:32:58;99312.63;;;9.35;100.00
75629;BME280;64213;46.452;16.994;2024-03-02T09:36:04;99317.16;;;9.33;100.00
75629;BME280;64213;46.452;16.994;2024-03-02T09:39:07;99321.81;;;9.29;100.00
75629;BME280;64213;46.452;16.994;2024-03-02T09:42:12;99316.50;;;9.42;100.00
75629;BME280;64213;46.452;16.994;2024-03-02T09:45:15;99322.13;;;9.25;100.00
75629;BME280;64213;46.452;16.994;2024-03-02T09:48:18;99326.34;;;9.15;100.00
75629;BME280;64213;46.452;16.994;2024-03-02T09:51:23;99318.31;;;9.42;100.00
75629;BME280;64213;46.452;16.994;2024-03-02T09:54:26;99320.41;;;9.49;100.00
75629;BME280;64213;46.452;16.994;2024-03-02T09:57:28;99321.78;;;9.79;100.00
75629;BME280;64213;46.452;16.994;2024-03-02T10:00:30;99313.84;;;9.79;100.00
75629;BME280;64213;46.452;16.994;2024-03-02T10:03:33;99309.00;;;9.73;100.00
75629;BME280;64213;46.452;16.994;2024-03-02T10:06:36;99312.31;;;10.00;100.00
75629;BME280;64213;46.452;16.994;2024-03-02T10:09:40;99308.88;;;9.87;100.00
75629;BME280;64213;46.452;16.994;2024-03-02T10:12:42;99316.34;;;10.17;100.00
75629;BME280;64213;46.452;16.994;2024-03-02T10:15:45;99306.97;;;10.37;100.00
75629;BME280;64213;46.452;16.994;2024-03-02T10:18:49;99312.09;;;10.63;100.00
75629;BME280;64213;46.452;16.994;2024-03-02T10:21:55;99319.38;;;10.94;100.00
75629;BME280;64213;46.452;16.994;2024-03-02T10:25:03;99318.50;;;10.83;100.00
75629;BME280;64213;46.452;16.994;2024-03-02T10:28:27;99319.12;;;11.09;100.00
75629;BME280;64213;46.452;16.994;2024-03-02T10:31:32;99312.16;;;11.08;100.00
75629;BME280;64213;46.452;16.994;2024-03-02T10:34:36;99321.97;;;10.83;100.00
75629;BME280;64213;46.452;16.994;2024-03-02T10:37:39;99323.22;;;11.02;100.00
75629;BME280;64213;46.452;16.994;2024-03-02T10:40:46;99314.97;;;10.71;100.00
75629;BME280;64213;46.452;16.994;2024-03-02T10:43:51;99314.56;;;10.88;100.00
75629;BME280;64213;46.452;16.994;2024-03-02T10:46:55;99311.31;;;11.18;100.00
75629;BME280;64213;46.452;16.994;2024-03-02T10:49:59;99312.12;;;10.97;100.00
75629;BME280;64213;46.452;16.994;2024-03-02T10:53:03;99320.53;;;10.90;100.00
75629;BME280;64213;46.452;16.994;2024-03-02T10:56:11;99311.12;;;10.64;100.00
75629;BME280;64213;46.452;16.994;2024-03-02T10:59:28;99306.25;;;10.93;100.00
75629;BME280;64213;46.452;16.994;2024-03-02T11:02:31;99307.44;;;11.23;100.00
75629;BME280;64213;46.452;16.994;2024-03-02T11:05:40;99305.31;;;12.05;96.74
75629;BME280;64213;46.452;16.994;2024-03-02T11:08:44;99315.81;;;12.27;96.23
75629;BME280;64213;46.452;16.994;2024-03-02T11:11:56;99309.63;;;12.06;95.93
75629;BME280;64213;46.452;16.994;2024-03-02T11:15:04;99300.97;;;12.78;91.71
75629;BME280;64213;46.452;16.994;2024-03-02T11:18:11;99295.28;;;14.72;85.94
75629;BME280;64213;46.452;16.994;2024-03-02T11:21:15;99293.53;;;15.65;80.27
75629;BME280;64213;46.452;16.994;2024-03-02T11:30:49;99295.59;;;13.51;85.64
75629;BME280;64213;46.452;16.994;2024-03-02T11:33:51;99293.03;;;13.09;88.99
75629;BME280;64213;46.452;16.994;2024-03-02T11:36:54;99283.78;;;13.03;89.07
75629;BME280;64213;46.452;16.994;2024-03-02T11:39:57;99295.81;;;12.76;90.00
75629;BME280;64213;46.452;16.994;2024-03-02T11:42:59;99290.94;;;12.40;92.72
75629;BME280;64213;46.452;16.994;2024-03-02T11:46:05;99285.75;;;12.59;91.67
75629;BME280;64213;46.452;16.994;2024-03-02T11:49:14;99288.16;;;12.83;89.83
75629;BME280;64213;46.452;16.994;2024-03-02T11:52:17;99287.84;;;13.07;89.36
75629;BME280;64213;46.452;16.994;2024-03-02T11:55:21;99280.72;;;13.29;89.33
75629;BME280;64213;46.452;16.994;2024-03-02T11:58:24;99279.91;;;14.36;84.35
75629;BME280;64213;46.452;16.994;2024-03-02T12:01:29;99273.28;;;15.99;76.08
75629;BME280;64213;46.452;16.994;2024-03-02T12:04:34;99283.31;;;16.59;74.56
75629;BME280;64213;46.452;16.994;2024-03-02T12:07:36;99278.31;;;17.42;70.67
75629;BME280;64213;46.452;16.994;2024-03-02T12:10:39;99276.13;;;17.12;67.94
75629;BME280;64213;46.452;16.994;2024-03-02T12:18:00;99271.13;;;16.03;72.24
75629;BME280;64213;46.452;16.994;2024-03-02T12:21:03;99279.16;;;16.65;70.11
75629;BME280;64213;46.452;16.994;2024-03-02T12:24:09;99273.88;;;15.93;71.93
75629;BME280;64213;46.452;16.994;2024-03-02T12:27:13;99278.81;;;15.88;74.10
75629;BME280;64213;46.452;16.994;2024-03-02T12:30:18;99271.06;;;16.13;72.69
75629;BME280;64213;46.452;16.994;2024-03-02T12:33:21;99262.22;;;17.34;68.55
75629;BME280;64213;46.452;16.994;2024-03-02T12:36:24;99270.47;;;17.57;65.98
75629;BME280;64213;46.452;16.994;2024-03-02T12:39:27;99268.81;;;17.14;67.83
75629;BME280;64213;46.452;16.994;2024-03-02T12:42:31;99261.69;;;17.31;67.00
75629;BME280;64213;46.452;16.994;2024-03-02T12:45:35;99258.38;;;17.79;66.35
75629;BME280;64213;46.452;16.994;2024-03-02T12:48:37;99257.88;;;18.98;62.39
75629;BME280;64213;46.452;16.994;2024-03-02T12:51:43;99259.03;;;19.12;58.20
75629;BME280;64213;46.452;16.994;2024-03-02T12:54:47;99253.87;;;19.42;60.26
75629;BME280;64213;46.452;16.994;2024-03-02T12:57:51;99252.91;;;18.30;64.08
75629;BME280;64213;46.452;16.994;2024-03-02T13:01:07;99244.06;;;18.29;62.79
75629;BME280;64213;46.452;16.994;2024-03-02T13:04:14;99244.56;;;18.41;60.75
75629;BME280;64213;46.452;16.994;2024-03-02T13:07:17;99238.25;;;19.06;59.82
75629;BME280;64213;46.452;16.994;2024-03-02T13:10:20;99241.59;;;17.18;65.36
75629;BME280;64213;46.452;16.994;2024-03-02T13:13:23;99239.34;;;18.64;62.15
75629;BME280;64213;46.452;16.994;2024-03-02T13:16:26;99232.47;;;18.70;60.62
75629;BME280;64213;46.452;16.994;2024-03-02T13:19:34;99233.72;;;20.08;56.41
75629;BME280;64213;46.452;16.994;2024-03-02T13:22:37;99235.91;;;21.03;55.01
75629;BME280;64213;46.452;16.994;2024-03-02T13:25:40;99231.47;;;20.20;53.48
75629;BME280;64213;46.452;16.994;2024-03-02T13:28:43;99232.94;;;20.23;52.95
75629;BME280;64213;46.452;16.994;2024-03-02T13:31:45;99233.47;;;21.08;51.34
75629;BME280;64213;46.452;16.994;2024-03-02T13:34:49;99234.13;;;21.40;50.29
75629;BME280;64213;46.452;16.994;2024-03-02T13:37:52;99227.84;;;21.03;52.20
75629;BME280;64213;46.452;16.994;2024-03-02T13:40:54;99228.53;;;19.84;53.24
75629;BME280;64213;46.452;16.994;2024-03-02T13:43:57;99219.28;;;18.35;56.83
75629;BME280;64213;46.452;16.994;2024-03-02T13:47:00;99229.13;;;17.86;58.17
75629;BME280;64213;46.452;16.994;2024-03-02T13:50:03;99227.81;;;17.39;59.87
75629;BME280;64213;46.452;16.994;2024-03-02T13:53:08;99224.28;;;17.89;58.87
75629;BME280;64213;46.452;16.994;2024-03-02T13:56:11;99232.00;;;18.33;58.85
75629;BME280;64213;46.452;16.994;2024-03-02T13:59:13;99221.28;;;19.22;56.49
75629;BME280;64213;46.452;16.994;2024-03-02T14:02:16;99222.38;;;19.44;55.07
75629;BME280;64213;46.452;16.994;2024-03-02T14:05:19;99223.94;;;19.69;53.95
75629;BME280;64213;46.452;16.994;2024-03-02T14:08:25;99222.72;;;20.41;52.47
75629;BME280;64213;46.452;16.994;2024-03-02T14:11:28;99227.19;;;21.16;49.42
75629;BME280;64213;46.452;16.994;2024-03-02T14:18:41;99231.84;;;19.55;52.75
75629;BME280;64213;46.452;16.994;2024-03-02T14:21:44;99230.97;;;18.75;53.90
75629;BME280;64213;46.452;16.994;2024-03-02T14:24:46;99227.78;;;18.80;53.87
75629;BME280;64213;46.452;16.994;2024-03-02T14:27:50;99230.00;;;18.19;56.19
75629;BME280;64213;46.452;16.994;2024-03-02T14:31:13;99227.19;;;17.54;58.47
75629;BME280;64213;46.452;16.994;2024-03-02T14:34:16;99223.84;;;17.52;56.73
75629;BME280;64213;46.452;16.994;2024-03-02T14:37:19;99215.87;;;17.68;56.77
75629;BME280;64213;46.452;16.994;2024-03-02T14:40:21;99221.69;;;17.13;58.08
75629;BME280;64213;46.452;16.994;2024-03-02T14:43:25;99217.72;;;16.91;59.62
75629;BME280;64213;46.452;16.994;2024-03-02T14:46:28;99215.31;;;17.06;58.51
75629;BME280;64213;46.452;16.994;2024-03-02T14:49:31;99214.81;;;17.61;57.33
75629;BME280;64213;46.452;16.994;2024-03-02T14:52:34;99214.59;;;17.97;56.32
75629;BME280;64213;46.452;16.994;2024-03-02T14:55:36;99215.22;;;17.74;56.95
75629;BME280;64213;46.452;16.994;2024-03-02T14:58:39;99218.00;;;17.56;57.35
75629;BME280;64213;46.452;16.994;2024-03-02T15:05:41;99220.72;;;17.22;57.63
75629;BME280;64213;46.452;16.994;2024-03-02T15:08:44;99211.59;;;17.33;57.77
75629;BME280;64213;46.452;16.994;2024-03-02T15:11:50;99215.75;;;17.27;57.82
75629;BME280;64213;46.452;16.994;2024-03-02T15:14:54;99214.03;;;17.18;57.64
75629;BME280;64213;46.452;16.994;2024-03-02T15:17:57;99212.66;;;16.54;59.61
75629;BME280;64213;46.452;16.994;2024-03-02T15:21:03;99210.41;;;16.93;59.56
75629;BME280;64213;46.452;16.994;2024-03-02T15:24:08;99214.59;;;16.43;59.91
75629;BME280;64213;46.452;16.994;2024-03-02T15:27:13;99212.66;;;16.54;60.16
75629;BME280;64213;46.452;16.994;2024-03-02T15:30:15;99217.69;;;16.13;60.85
75629;BME280;64213;46.452;16.994;2024-03-02T15:33:19;99210.69;;;15.94;60.89
75629;BME280;64213;46.452;16.994;2024-03-02T15:36:23;99211.38;;;15.96;61.46
75629;BME280;64213;46.452;16.994;2024-03-02T15:39:25;99200.53;;;15.62;62.31
75629;BME280;64213;46.452;16.994;2024-03-02T15:42:29;99198.84;;;14.87;65.06
75629;BME280;64213;46.452;16.994;2024-03-02T15:45:32;99194.84;;;15.01;64.23
75629;BME280;64213;46.452;16.994;2024-03-02T15:48:36;99197.78;;;14.98;64.81
75629;BME280;64213;46.452;16.994;2024-03-02T15:51:39;99199.34;;;14.54;66.58
75629;BME280;64213;46.452;16.994;2024-03-02T15:54:48;99201.75;;;14.37;67.19
75629;BME280;64213;46.452;16.994;2024-03-02T15:57:53;99204.03;;;14.03;68.97
75629;BME280;64213;46.452;16.994;2024-03-02T16:00:56;99201.37;;;13.84;70.67
75629;BME280;64213;46.452;16.994;2024-03-02T16:04:00;99214.50;;;13.56;71.63
75629;BME280;64213;46.452;16.994;2024-03-02T16:07:04;99198.88;;;13.22;74.32
75629;BME280;64213;46.452;16.994;2024-03-02T16:10:09;99196.56;;;12.98;75.63
75629;BME280;64213;46.452;16.994;2024-03-02T16:13:13;99204.31;;;12.80;76.81
75629;BME280;64213;46.452;16.994;2024-03-02T16:16:16;99198.66;;;12.64;77.84
75629;BME280;64213;46.452;16.994;2024-03-02T16:19:19;99198.88;;;12.51;78.36